createdAt,value
2018-07-27T00:01:57.602Z,17.13
2018-07-27T00:04:26.919Z,17.05
2018-07-27T00:06:56.005Z,16.95
2018-07-27T00:09:25.344Z,17.01
2018-07-27T00:11:54.647Z,17.08
2018-07-27T00:14:23.964Z,17.12
2018-07-27T00:16:53.271Z,17.16
2018-07-27T00:19:22.605Z,17.29
2018-07-27T00:21:51.916Z,17.26
2018-07-27T00:24:20.990Z,16.57
2018-07-27T00:26:50.362Z,17.15
2018-07-27T00:29:19.679Z,17.17
2018-07-27T00:31:48.996Z,17.24
2018-07-27T00:34:18.299Z,17.54
2018-07-27T00:36:47.612Z,17.23
2018-07-27T00:39:16.685Z,16.60
2018-07-27T00:41:46.017Z,17.10
2018-07-27T00:44:15.345Z,16.94
2018-07-27T00:46:44.642Z,16.96
2018-07-27T00:49:13.955Z,16.78
2018-07-27T00:51:43.273Z,16.84
2018-07-27T00:54:12.596Z,16.81
2018-07-27T00:56:41.886Z,16.60
2018-07-27T00:59:11.225Z,16.66
2018-07-27T01:01:40.531Z,16.71
2018-07-27T01:04:09.927Z,16.62
2018-07-27T01:06:39.318Z,16.55
2018-07-27T01:09:10.474Z,16.50
2018-07-27T01:11:39.878Z,16.64
2018-07-27T01:14:09.289Z,16.67
2018-07-27T01:16:38.661Z,16.99
2018-07-27T01:19:07.794Z,17.10
2018-07-27T01:21:37.160Z,17.07
2018-07-27T01:24:06.328Z,17.13
2018-07-27T01:26:35.693Z,17.02
2018-07-27T01:29:05.087Z,17.12
2018-07-27T01:31:34.454Z,17.10
2018-07-27T01:34:03.845Z,17.49
2018-07-27T01:36:33.213Z,17.63
2018-07-27T01:39:02.595Z,17.93
2018-07-27T01:41:32.787Z,17.97
2018-07-27T01:44:01.907Z,18.10
2018-07-27T01:46:31.278Z,18.08
2018-07-27T01:49:00.409Z,17.91
2018-07-27T01:51:29.780Z,17.74
2018-07-27T01:53:58.909Z,17.52
2018-07-27T01:56:28.284Z,17.52
2018-07-27T01:58:57.662Z,17.52
2018-07-27T02:01:27.039Z,17.41
2018-07-27T02:03:56.436Z,17.30
2018-07-27T02:06:25.861Z,17.80
2018-07-27T02:08:55.329Z,16.98
2018-07-27T02:11:24.718Z,16.89
2018-07-27T02:13:54.151Z,16.87
2018-07-27T02:16:23.548Z,16.77
2018-07-27T02:18:52.929Z,16.67
2018-07-27T02:21:22.239Z,16.64
2018-07-27T02:23:51.547Z,16.59
2018-07-27T02:26:20.854Z,16.43
2018-07-27T02:28:50.176Z,16.51
2018-07-27T02:31:19.487Z,16.35
2018-07-27T02:33:48.818Z,16.46
2018-07-27T02:36:17.872Z,16.25
2018-07-27T02:38:47.204Z,16.50
2018-07-27T02:41:16.575Z,15.92
2018-07-27T02:43:45.866Z,16.72
2018-07-27T02:46:15.215Z,16.69
2018-07-27T02:48:44.528Z,16.76
2018-07-27T02:51:13.887Z,16.73
2018-07-27T02:53:43.179Z,16.60
2018-07-27T02:56:12.548Z,16.38
2018-07-27T02:58:41.997Z,16.57
2018-07-27T03:01:11.332Z,16.37
2018-07-27T03:03:40.684Z,16.20
2018-07-27T03:06:10.033Z,16.74
2018-07-27T03:08:39.375Z,16.04
2018-07-27T03:11:08.710Z,15.95
2018-07-27T03:13:38.059Z,15.95
2018-07-27T03:16:07.409Z,15.93
2018-07-27T03:18:36.531Z,15.94
2018-07-27T03:21:05.871Z,15.86
2018-07-27T03:23:35.219Z,15.82
2018-07-27T03:26:04.573Z,15.71
2018-07-27T03:28:33.926Z,15.69
2018-07-27T03:31:03.278Z,15.71
2018-07-27T03:33:32.623Z,15.69
2018-07-27T03:36:01.973Z,15.59
2018-07-27T03:38:31.320Z,15.58
2018-07-27T03:41:00.667Z,15.45
2018-07-27T03:43:30.012Z,15.42
2018-07-27T03:45:59.376Z,15.53
2018-07-27T03:48:28.716Z,15.50
2018-07-27T03:50:58.065Z,15.66
2018-07-27T03:53:27.391Z,15.60
2018-07-27T03:55:56.744Z,15.38
2018-07-27T03:58:26.139Z,15.76
2018-07-27T04:00:55.460Z,15.79
2018-07-27T04:03:24.787Z,15.78
2018-07-27T04:05:54.217Z,15.85
2018-07-27T04:08:23.523Z,15.89
2018-07-27T04:10:52.896Z,15.87
2018-07-27T04:13:22.206Z,15.87
2018-07-27T04:15:51.537Z,16.95
2018-07-27T04:18:20.850Z,15.54
2018-07-27T04:20:50.217Z,15.52
2018-07-27T04:23:19.521Z,15.53
2018-07-27T04:25:48.839Z,14.92
2018-07-27T04:28:18.163Z,15.58
2018-07-27T04:30:47.475Z,15.64
2018-07-27T04:33:16.804Z,15.75
2018-07-27T04:35:46.197Z,15.55
2018-07-27T04:38:15.453Z,15.83
2018-07-27T04:40:44.776Z,15.82
2018-07-27T04:43:14.083Z,15.95
2018-07-27T04:45:43.431Z,16.10
2018-07-27T04:48:12.750Z,16.13
2018-07-27T04:50:42.092Z,16.21
2018-07-27T04:53:11.556Z,16.24
2018-07-27T04:55:40.881Z,16.30
2018-07-27T04:58:10.192Z,16.48
2018-07-27T05:00:39.540Z,15.81
2018-07-27T05:03:08.892Z,16.56
2018-07-27T05:05:38.334Z,16.74
2018-07-27T05:08:08.660Z,17.43
2018-07-27T05:10:43.262Z,16.96
2018-07-27T05:13:12.608Z,16.72
2018-07-27T05:15:41.975Z,17.07
2018-07-27T05:18:11.148Z,17.11
2018-07-27T05:20:40.460Z,17.04
2018-07-27T05:23:09.826Z,16.78
2018-07-27T05:25:39.172Z,17.13
2018-07-27T05:28:09.510Z,17.07
2018-07-27T05:30:38.857Z,17.05
2018-07-27T05:33:08.220Z,16.96
2018-07-27T05:35:37.571Z,17.03
2018-07-27T05:38:06.921Z,17.21
2018-07-27T05:40:36.284Z,17.39
2018-07-27T05:43:05.656Z,17.70
2018-07-27T05:45:35.021Z,18.06
2018-07-27T05:48:04.381Z,18.28
2018-07-27T05:50:33.727Z,18.52
2018-07-27T05:53:03.080Z,18.61
2018-07-27T05:55:32.436Z,18.83
2018-07-27T05:58:01.797Z,18.96
2018-07-27T06:00:31.148Z,19.00
2018-07-27T06:03:00.617Z,19.17
2018-07-27T06:05:29.880Z,19.31
2018-07-27T06:07:59.241Z,19.43
2018-07-27T06:10:28.596Z,19.55
2018-07-27T06:12:57.940Z,19.67
2018-07-27T06:15:27.300Z,19.70
2018-07-27T06:17:56.727Z,19.81
2018-07-27T06:20:26.077Z,19.88
2018-07-27T06:22:55.424Z,19.98
2018-07-27T06:25:24.776Z,21.27
2018-07-27T06:27:54.128Z,20.24
2018-07-27T06:30:23.227Z,20.30
2018-07-27T06:32:52.322Z,20.38
2018-07-27T06:35:21.420Z,20.54
2018-07-27T06:37:50.531Z,20.62
2018-07-27T06:40:19.894Z,20.76
2018-07-27T06:42:49.271Z,20.65
2018-07-27T06:45:18.645Z,20.73
2018-07-27T06:47:47.773Z,20.85
2018-07-27T06:50:17.126Z,20.91
2018-07-27T06:52:46.245Z,21.05
2018-07-27T06:55:15.599Z,21.22
2018-07-27T06:57:44.961Z,21.93
2018-07-27T07:00:14.325Z,21.41
2018-07-27T07:02:43.474Z,21.51
2018-07-27T07:05:12.820Z,21.61
2018-07-27T07:07:42.183Z,21.72
2018-07-27T07:10:11.530Z,21.77
2018-07-27T07:12:40.892Z,21.72
2018-07-27T07:15:10.860Z,21.88
2018-07-27T07:17:40.220Z,21.97
2018-07-27T07:20:09.708Z,22.22
2018-07-27T07:22:39.276Z,22.27
2018-07-27T07:25:08.654Z,22.31
2018-07-27T07:27:37.985Z,22.40
2018-07-27T07:30:07.492Z,22.48
2018-07-27T07:32:36.856Z,22.53
2018-07-27T07:35:06.045Z,22.70
2018-07-27T07:37:35.388Z,22.83
2018-07-27T07:40:05.096Z,22.93
2018-07-27T07:42:34.442Z,23.00
2018-07-27T07:45:03.812Z,22.90
2018-07-27T07:47:33.138Z,22.87
2018-07-27T07:50:02.482Z,22.69
2018-07-27T07:52:31.828Z,22.97
2018-07-27T07:55:01.174Z,23.04
2018-07-27T07:57:30.526Z,23.15
2018-07-27T07:59:59.881Z,23.24
2018-07-27T08:02:29.251Z,23.45
2018-07-27T08:04:58.639Z,23.59
2018-07-27T08:07:27.992Z,23.68
2018-07-27T08:09:57.360Z,23.75
2018-07-27T08:12:26.466Z,23.75
2018-07-27T08:14:55.573Z,23.90
2018-07-27T08:17:24.989Z,23.95
2018-07-27T08:19:54.273Z,24.04
2018-07-27T08:22:23.636Z,24.15
2018-07-27T08:24:53.033Z,24.28
2018-07-27T08:27:22.385Z,24.42
2018-07-27T08:29:51.740Z,24.55
2018-07-27T08:32:21.096Z,24.65
2018-07-27T08:34:50.436Z,24.84
2018-07-27T08:37:19.796Z,24.77
2018-07-27T08:39:49.219Z,24.86
2018-07-27T08:42:18.492Z,24.85
2018-07-27T08:44:47.828Z,24.84
2018-07-27T08:47:17.202Z,24.88
2018-07-27T08:49:46.283Z,24.90
2018-07-27T08:52:15.635Z,25.03
2018-07-27T08:54:44.986Z,25.02
2018-07-27T08:57:14.364Z,24.99
2018-07-27T08:59:43.704Z,24.31
2018-07-27T09:02:13.071Z,24.99
2018-07-27T09:04:42.176Z,24.91
2018-07-27T09:07:11.519Z,24.80
2018-07-27T09:09:40.873Z,24.87
2018-07-27T09:12:09.981Z,24.80
2018-07-27T09:14:39.363Z,24.98
2018-07-27T09:17:08.720Z,25.69
2018-07-27T09:19:38.068Z,25.26
2018-07-27T09:22:08.549Z,25.47
2018-07-27T09:24:37.978Z,24.93
2018-07-27T09:27:07.270Z,25.81
2018-07-27T09:29:36.663Z,25.95
2018-07-27T09:32:06.006Z,26.06
2018-07-27T09:34:35.121Z,26.24
2018-07-27T09:37:04.465Z,26.26
2018-07-27T09:39:33.826Z,26.34
2018-07-27T09:42:03.177Z,26.45
2018-07-27T09:44:32.532Z,26.40
2018-07-27T09:47:01.863Z,26.40
2018-07-27T09:49:31.221Z,26.26
2018-07-27T09:52:00.565Z,26.34
2018-07-27T09:54:29.924Z,26.49
2018-07-27T09:56:59.271Z,26.54
2018-07-27T09:59:28.620Z,26.70
2018-07-27T10:01:57.984Z,26.84
2018-07-27T10:04:27.434Z,26.76
2018-07-27T10:06:56.779Z,26.84
2018-07-27T10:09:26.132Z,26.91
2018-07-27T10:11:55.474Z,27.00
2018-07-27T10:14:24.846Z,27.25
2018-07-27T10:16:54.190Z,26.92
2018-07-27T10:19:23.555Z,27.15
2018-07-27T10:21:52.921Z,27.25
2018-07-27T10:24:22.033Z,27.12
2018-07-27T10:26:51.376Z,27.35
2018-07-27T10:29:20.752Z,27.45
2018-07-27T10:31:50.104Z,27.33
2018-07-27T10:34:19.468Z,27.18
2018-07-27T10:36:48.813Z,27.22
2018-07-27T10:39:18.188Z,27.43
2018-07-27T10:41:47.567Z,27.42
2018-07-27T10:44:16.917Z,27.36
2018-07-27T10:46:46.021Z,27.24
2018-07-27T10:49:15.382Z,27.43
2018-07-27T10:51:45.093Z,27.41
2018-07-27T10:54:14.413Z,27.62
2018-07-27T10:56:43.764Z,27.78
2018-07-27T10:59:13.120Z,27.67
2018-07-27T11:01:42.480Z,28.06
2018-07-27T11:04:11.819Z,27.45
2018-07-27T11:06:47.474Z,27.92
2018-07-27T11:09:16.819Z,27.72
2018-07-27T11:11:46.176Z,27.58
2018-07-27T11:14:15.616Z,27.68
2018-07-27T11:16:44.981Z,27.96
2018-07-27T11:19:14.333Z,27.71
2018-07-27T11:21:43.673Z,28.01
2018-07-27T11:24:13.028Z,27.86
2018-07-27T11:26:42.381Z,28.35
2018-07-27T11:29:11.736Z,28.65
2018-07-27T11:31:41.093Z,28.48
2018-07-27T11:34:10.428Z,28.02
2018-07-27T11:36:39.805Z,28.53
2018-07-27T11:39:10.860Z,28.69
2018-07-27T11:41:40.262Z,28.85
2018-07-27T11:44:09.620Z,28.70
2018-07-27T11:46:38.989Z,28.64
2018-07-27T11:49:08.346Z,28.57
2018-07-27T11:51:37.459Z,28.59
2018-07-27T11:54:06.813Z,28.44
2018-07-27T11:56:36.157Z,28.57
2018-07-27T11:59:05.589Z,28.78
2018-07-27T12:01:34.950Z,29.03
2018-07-27T12:04:04.055Z,28.80
2018-07-27T12:06:33.405Z,28.74
2018-07-27T12:09:02.760Z,28.77
2018-07-27T12:11:32.121Z,28.65
2018-07-27T12:14:01.487Z,28.55
2018-07-27T12:16:30.813Z,28.79
2018-07-27T12:19:00.158Z,29.02
2018-07-27T12:21:29.677Z,29.29
2018-07-27T12:23:59.176Z,29.43
2018-07-27T12:26:28.537Z,29.48
2018-07-27T12:28:57.886Z,29.49
2018-07-27T12:31:27.246Z,29.63
2018-07-27T12:33:56.644Z,29.64
2018-07-27T12:36:25.982Z,29.92
2018-07-27T12:38:55.379Z,30.04
2018-07-27T12:41:24.708Z,30.56
2018-07-27T12:43:54.051Z,30.73
2018-07-27T12:46:23.397Z,30.45
2018-07-27T12:48:52.764Z,30.93
2018-07-27T12:51:21.915Z,29.78
2018-07-27T12:53:51.301Z,30.47
2018-07-27T12:56:20.624Z,30.69
2018-07-27T12:58:49.974Z,31.01
2018-07-27T13:01:19.076Z,31.32
2018-07-27T13:03:48.429Z,32.45
2018-07-27T13:06:17.780Z,32.95
2018-07-27T13:08:47.153Z,32.43
2018-07-27T13:11:16.618Z,31.78
2018-07-27T13:13:45.993Z,31.74
2018-07-27T13:16:15.420Z,31.52
2018-07-27T13:18:44.762Z,32.04
2018-07-27T13:21:13.851Z,32.73
2018-07-27T13:23:59.395Z,32.41
2018-07-27T13:26:29.779Z,32.37
2018-07-27T13:28:59.215Z,32.23
2018-07-27T13:31:55.030Z,31.91
2018-07-27T13:34:42.647Z,31.53
2018-07-27T13:40:09.112Z,32.32
2018-07-27T13:42:38.480Z,32.28
2018-07-27T13:45:07.601Z,33.08
2018-07-27T13:47:36.956Z,31.70
2018-07-27T13:50:06.333Z,31.42
2018-07-27T13:52:35.679Z,31.23
2018-07-27T13:55:04.771Z,30.10
2018-07-27T13:57:34.148Z,30.77
2018-07-27T14:00:03.479Z,30.67
2018-07-27T14:02:32.695Z,30.66
2018-07-27T14:05:02.044Z,30.59
2018-07-27T14:07:31.475Z,30.44
2018-07-27T14:10:00.800Z,30.41
2018-07-27T14:12:30.184Z,30.22
2018-07-27T14:14:59.292Z,29.86
2018-07-27T14:17:28.644Z,29.46
2018-07-27T14:19:57.993Z,29.28
2018-07-27T14:22:27.380Z,29.19
2018-07-27T14:24:56.764Z,29.21
2018-07-27T14:27:26.151Z,29.06
2018-07-27T14:29:55.504Z,29.22
2018-07-27T14:32:24.851Z,29.10
2018-07-27T14:34:54.204Z,29.14
2018-07-27T14:37:23.564Z,29.17
2018-07-27T14:39:52.950Z,29.79
2018-07-27T14:42:22.283Z,29.05
2018-07-27T14:44:51.395Z,29.03
2018-07-27T14:47:20.780Z,28.98
2018-07-27T14:49:49.879Z,28.71
2018-07-27T14:52:19.117Z,28.86
2018-07-27T14:54:48.067Z,28.88
2018-07-27T14:57:17.166Z,28.78
2018-07-27T14:59:46.269Z,28.89
2018-07-27T15:02:15.627Z,28.83
2018-07-27T15:04:46.052Z,28.87
2018-07-27T15:07:15.351Z,28.89
2018-07-27T15:09:44.711Z,28.84
2018-07-27T15:12:14.074Z,28.92
2018-07-27T15:14:43.428Z,28.90
2018-07-27T15:17:12.788Z,29.05
2018-07-27T15:19:41.895Z,29.50
2018-07-27T15:22:10.987Z,29.85
2018-07-27T15:24:40.093Z,29.96
2018-07-27T15:27:09.471Z,30.20
2018-07-27T15:29:38.820Z,31.22
2018-07-27T15:32:08.756Z,30.65
2018-07-27T15:34:38.111Z,31.18
2018-07-27T15:37:07.467Z,31.19
2018-07-27T15:39:36.825Z,31.03
2018-07-27T15:42:06.179Z,31.64
2018-07-27T15:44:35.541Z,31.46
2018-07-27T15:47:04.920Z,31.15
2018-07-27T15:49:34.265Z,31.02
2018-07-27T15:52:03.627Z,30.83
2018-07-27T15:54:32.984Z,30.93
2018-07-27T15:57:02.340Z,30.95
2018-07-27T15:59:31.691Z,30.68
2018-07-27T16:02:01.079Z,30.30
2018-07-27T16:04:30.428Z,30.04
2018-07-27T16:06:59.792Z,30.12
2018-07-27T16:09:29.167Z,29.75
2018-07-27T16:11:58.529Z,29.96
2018-07-27T16:14:27.904Z,29.87
2018-07-27T16:16:57.267Z,29.08
2018-07-27T16:19:28.600Z,29.85
2018-07-27T16:21:58.895Z,30.10
2018-07-27T16:24:28.291Z,30.16
2018-07-27T16:26:57.426Z,30.83
2018-07-27T16:29:27.431Z,30.36
2018-07-27T16:31:57.150Z,30.34
2018-07-27T16:34:26.540Z,30.50
2018-07-27T16:36:55.933Z,30.42
2018-07-27T16:39:25.291Z,30.54
2018-07-27T16:41:54.648Z,30.51
2018-07-27T16:44:24.013Z,30.39
2018-07-27T16:46:53.375Z,30.51
2018-07-27T16:49:22.723Z,30.54
2018-07-27T16:51:52.094Z,30.10
2018-07-27T16:54:21.443Z,30.05
2018-07-27T16:56:50.796Z,30.07
2018-07-27T16:59:20.144Z,30.17
2018-07-27T17:01:49.503Z,29.99
2018-07-27T17:04:18.956Z,29.98
2018-07-27T17:06:48.315Z,30.04
2018-07-27T17:09:17.720Z,30.00
2018-07-27T17:11:47.037Z,29.92
2018-07-27T17:14:16.376Z,29.98
2018-07-27T17:16:45.728Z,29.84
2018-07-27T17:19:15.113Z,30.59
2018-07-27T17:21:44.469Z,29.88
2018-07-27T17:24:13.811Z,29.95
2018-07-27T17:26:43.168Z,30.07
2018-07-27T17:29:12.521Z,29.92
2018-07-27T17:31:41.875Z,29.32
2018-07-27T17:34:11.225Z,29.80
2018-07-27T17:36:40.590Z,29.75
2018-07-27T17:39:11.326Z,29.49
2018-07-27T17:41:41.077Z,29.42
2018-07-27T17:44:11.066Z,29.26
2018-07-27T17:46:40.461Z,28.98
2018-07-27T17:49:10.368Z,28.16
2018-07-27T17:51:39.775Z,28.78
2018-07-27T17:54:09.913Z,28.56
2018-07-27T17:56:39.302Z,28.55
2018-07-27T17:59:08.681Z,28.51
2018-07-27T18:01:38.137Z,28.52
2018-07-27T18:04:08.778Z,28.24
2018-07-27T18:06:38.184Z,28.83
2018-07-27T18:09:11.440Z,28.01
2018-07-27T18:11:41.120Z,27.92
2018-07-27T18:14:10.834Z,27.78
2018-07-27T18:16:40.236Z,27.50
2018-07-27T18:19:09.654Z,27.41
2018-07-27T18:21:39.220Z,27.36
2018-07-27T18:24:09.688Z,27.30
2018-07-27T18:26:39.075Z,27.16
2018-07-27T18:29:08.517Z,27.03
2018-07-27T18:31:37.920Z,27.01
2018-07-27T18:34:07.346Z,26.77
2018-07-27T18:36:36.902Z,26.49
2018-07-27T18:39:09.968Z,26.28
2018-07-27T18:41:39.364Z,26.20
2018-07-27T18:44:09.082Z,25.92
2018-07-27T18:46:39.612Z,25.77
2018-07-27T18:49:09.326Z,25.56
2018-07-27T18:51:38.838Z,25.40
2018-07-27T18:54:09.221Z,25.32
2018-07-27T18:56:38.702Z,25.18
2018-07-27T18:59:08.119Z,25.08
2018-07-27T19:01:37.297Z,24.82
2018-07-27T19:04:06.710Z,25.02
2018-07-27T19:06:36.095Z,24.87
2018-07-27T19:09:09.892Z,24.89
2018-07-27T19:11:39.275Z,24.68
2018-07-27T19:14:09.392Z,24.84
2018-07-27T19:16:38.792Z,24.91
2018-07-27T19:19:08.501Z,24.81
2018-07-27T19:21:37.872Z,24.66
2018-07-27T19:24:07.557Z,24.51
2018-07-27T19:26:36.991Z,14.90
2018-07-27T19:29:06.229Z,24.63
2018-07-27T19:31:35.608Z,24.59
2018-07-27T19:34:05.019Z,24.62
2018-07-27T19:36:34.408Z,24.49
2018-07-27T19:39:03.992Z,24.60
2018-07-27T19:41:33.121Z,24.55
2018-07-27T19:44:02.574Z,24.30
2018-07-27T19:46:31.884Z,24.22
2018-07-27T19:49:01.017Z,24.22
2018-07-27T19:51:30.408Z,24.00
2018-07-27T19:53:59.807Z,23.95
2018-07-27T19:56:29.196Z,23.85
2018-07-27T19:58:58.624Z,23.84
2018-07-27T20:01:27.996Z,23.73
2018-07-27T20:03:57.348Z,23.69
2018-07-27T20:06:26.934Z,23.54
2018-07-27T20:08:56.731Z,23.31
2018-07-27T20:11:26.148Z,23.19
2018-07-27T20:13:55.521Z,23.03
2018-07-27T20:16:24.638Z,22.98
2018-07-27T20:18:54.028Z,23.00
2018-07-27T20:21:23.443Z,22.87
2018-07-27T20:23:52.759Z,23.00
2018-07-27T20:26:22.158Z,23.06
2018-07-27T20:28:51.560Z,23.10
2018-07-27T20:31:20.949Z,23.12
2018-07-27T20:33:50.321Z,23.07
2018-07-27T20:36:19.721Z,23.02
2018-07-27T20:38:49.109Z,23.15
2018-07-27T20:41:18.522Z,23.15
2018-07-27T20:43:47.942Z,22.84
2018-07-27T20:46:17.389Z,22.75
2018-07-27T20:48:46.760Z,21.87
2018-07-27T20:51:16.177Z,22.45
2018-07-27T20:53:45.586Z,22.38
2018-07-27T20:56:15.059Z,22.36
2018-07-27T20:58:44.175Z,22.35
2018-07-27T21:01:13.581Z,22.38
2018-07-27T21:03:43.028Z,22.40
2018-07-27T21:06:12.448Z,22.22
2018-07-27T21:08:41.569Z,22.29
2018-07-27T21:11:10.968Z,22.23
2018-07-27T21:13:40.396Z,21.97
2018-07-27T21:16:09.784Z,21.52
2018-07-27T21:18:39.177Z,21.42
2018-07-27T21:21:08.599Z,21.36
2018-07-27T21:23:37.982Z,21.38
2018-07-27T21:26:07.380Z,21.39
2018-07-27T21:28:36.508Z,21.35
2018-07-27T21:31:06.019Z,21.28
2018-07-27T21:33:35.404Z,21.30
2018-07-27T21:36:04.817Z,21.00
2018-07-27T21:38:34.240Z,20.84
2018-07-27T21:41:03.730Z,20.45
2018-07-27T21:43:33.109Z,19.80
2018-07-27T21:46:02.573Z,20.41
2018-07-27T21:48:31.892Z,20.57
2018-07-27T21:51:01.294Z,19.95
2018-07-27T21:53:30.390Z,20.85
2018-07-27T21:55:59.754Z,20.78
2018-07-27T21:58:29.128Z,20.74
2018-07-27T22:00:58.488Z,20.63
2018-07-27T22:03:27.856Z,20.45
2018-07-27T22:05:57.213Z,20.38
2018-07-27T22:08:26.548Z,20.32
2018-07-27T22:10:55.900Z,20.40
2018-07-27T22:13:25.337Z,20.32
2018-07-27T22:15:54.394Z,20.20
2018-07-27T22:18:23.496Z,20.21
2018-07-27T22:20:52.867Z,20.16
2018-07-27T22:23:22.228Z,19.98
2018-07-27T22:25:51.594Z,19.83
2018-07-27T22:28:20.960Z,19.61
2018-07-27T22:30:50.322Z,19.22
2018-07-27T22:33:19.676Z,19.14
2018-07-27T22:35:48.784Z,19.27
2018-07-27T22:38:18.153Z,19.20
2018-07-27T22:40:47.531Z,19.21
2018-07-27T22:43:16.870Z,18.64
2018-07-27T22:45:46.222Z,19.27
2018-07-27T22:48:15.581Z,19.31
2018-07-27T22:50:44.676Z,19.41
2018-07-27T22:53:14.048Z,19.30
2018-07-27T22:55:43.392Z,19.32
2018-07-27T22:58:12.754Z,19.23
2018-07-27T23:00:42.196Z,19.02
2018-07-27T23:03:11.568Z,18.94
2018-07-27T23:05:40.908Z,18.83
2018-07-27T23:08:10.361Z,18.73
2018-07-27T23:10:39.411Z,18.70
2018-07-27T23:13:08.515Z,18.63
2018-07-27T23:15:37.867Z,18.67
2018-07-27T23:18:07.282Z,18.48
2018-07-27T23:20:36.389Z,18.51
2018-07-27T23:23:05.839Z,18.43
2018-07-27T23:25:35.188Z,18.32
2018-07-27T23:28:04.313Z,18.28
2018-07-27T23:30:33.647Z,18.29
2018-07-27T23:33:03.004Z,18.32
2018-07-27T23:35:32.347Z,18.30
2018-07-27T23:38:01.696Z,18.36
2018-07-27T23:40:31.067Z,18.39
2018-07-27T23:43:00.433Z,18.40
2018-07-27T23:45:29.782Z,18.41
2018-07-27T23:47:59.132Z,18.30
2018-07-27T23:50:28.491Z,18.25
2018-07-27T23:52:57.602Z,18.12
2018-07-27T23:55:27.288Z,17.98
2018-07-27T23:57:56.933Z,17.97
